Time;durP1;ratioP1;P1;durP2;ratioP2;P2;SDS_P1;SDS_P2;PMS_P1;PMS_P2;Temp;Humidity;BMP_temperature;BMP_pressure;BME280_temperature;BME280_humidity;BME280_pressure;Samples;Min_cycle;Max_cycle;Signal;HPM_P1;HPM_P2
2022/05/12 00:01:25;;;;;;;9.43;3.72;;;;;;;;;;5095670;28;20028;-60
2022/05/12 00:03:51;;;;;;;10.38;4.22;;;;;;;;;;5097058;28;20029;-60
2022/05/12 00:06:17;;;;;;;8.15;3.92;;;;;;;;;;5089576;28;20024;-60
2022/05/12 00:08:44;;;;;;;8.50;4.03;;;;;;;;;;5095246;28;20044;-60
2022/05/12 00:11:10;;;;;;;10.20;3.90;;;;;;;;;;5089573;28;20076;-60
2022/05/12 00:13:35;;;;;;;12.15;4.10;;;;;;;;;;5093945;28;20408;-60
2022/05/12 00:16:02;;;;;;;6.45;3.72;;;;;;;;;;5085560;28;20023;-60
2022/05/12 00:18:28;;;;;;;8.00;3.75;;;;;;;;;;5090215;28;20092;-60
2022/05/12 00:20:54;;;;;;;6.82;3.72;;;;;;;;;;5090070;28;20127;-59
2022/05/12 00:23:22;;;;;;;8.02;3.78;;;;;;;;;;5096256;28;20791;-60
2022/05/12 00:25:49;;;;;;;10.23;4.00;;;;;;;;;;5089091;28;20034;-60
2022/05/12 00:28:16;;;;;;;7.63;4.25;;;;;;;;;;5090211;28;20042;-60
2022/05/12 00:30:43;;;;;;;11.75;4.38;;;;;;;;;;5084660;28;20041;-60
2022/05/12 00:33:09;;;;;;;8.50;3.45;;;;;;;;;;5099670;28;20400;-60
2022/05/12 00:35:35;;;;;;;7.72;3.83;;;;;;;;;;5088403;28;20043;-60
2022/05/12 00:38:01;;;;;;;10.85;3.85;;;;;;;;;;5099035;28;20088;-60
2022/05/12 00:40:27;;;;;;;9.65;4.28;;;;;;;;;;5089955;28;20040;-60
2022/05/12 00:42:58;;;;;;;8.05;4.05;;;;;;;;;;5088143;28;20565;-60
2022/05/12 00:45:24;;;;;;;8.88;3.63;;;;;;;;;;5090737;28;20028;-60
2022/05/12 00:47:50;;;;;;;9.07;3.67;;;;;;;;;;5085288;28;20032;-60
2022/05/12 00:50:17;;;;;;;10.13;3.70;;;;;;;;;;5086970;28;20074;-60
2022/05/12 00:52:43;;;;;;;11.48;3.88;;;;;;;;;;5087109;28;20483;-60
2022/05/12 00:55:12;;;;;;;12.23;3.65;;;;;;;;;;5089957;28;20034;-60
2022/05/12 00:57:50;;;;;;;9.93;3.97;;;;;;;;;;5098027;28;20024;-60
2022/05/12 01:00:17;;;;;;;10.65;3.70;;;;;;;;;;5092196;28;20027;-60
2022/05/12 01:02:45;;;;;;;10.05;3.95;;;;;;;;;;5089173;28;20059;-60
2022/05/12 01:05:12;;;;;;;8.02;3.63;;;;;;;;;;5087785;28;20433;-60
2022/05/12 01:07:38;;;;;;;9.75;4.05;;;;;;;;;;5080455;28;20039;-60
2022/05/12 01:10:05;;;;;;;11.27;4.10;;;;;;;;;;5078352;28;20060;-60
2022/05/12 01:12:31;;;;;;;7.45;3.63;;;;;;;;;;5083473;28;20379;-59
2022/05/12 01:14:58;;;;;;;7.55;3.83;;;;;;;;;;5092816;28;20518;-60
2022/05/12 01:17:24;;;;;;;7.38;4.13;;;;;;;;;;5087988;28;20612;-60
2022/05/12 01:19:51;;;;;;;6.80;4.28;;;;;;;;;;5094264;28;20016;-60
2022/05/12 01:22:29;;;;;;;7.93;3.97;;;;;;;;;;5087125;28;20020;-59
2022/05/12 01:24:55;;;;;;;8.23;4.13;;;;;;;;;;5097878;28;20027;-60
2022/05/12 01:27:22;;;;;;;8.10;4.13;;;;;;;;;;5093382;28;20391;-60
2022/05/12 01:29:55;;;;;;;7.05;3.70;;;;;;;;;;5075930;28;20070;-60
2022/05/12 01:32:22;;;;;;;8.30;3.88;;;;;;;;;;5095693;28;20031;-59
2022/05/12 01:34:49;;;;;;;11.10;3.80;;;;;;;;;;5091930;28;20024;-59
2022/05/12 01:37:15;;;;;;;8.27;4.20;;;;;;;;;;5096878;28;20077;-60
2022/05/12 01:39:41;;;;;;;10.60;3.95;;;;;;;;;;5078580;28;20507;-59
2022/05/12 01:42:08;;;;;;;9.35;4.38;;;;;;;;;;5095796;28;20016;-60
2022/05/12 01:44:34;;;;;;;12.68;4.47;;;;;;;;;;5089072;28;20028;-60
2022/05/12 01:47:01;;;;;;;6.75;3.92;;;;;;;;;;5094700;28;20024;-60
2022/05/12 01:49:27;;;;;;;7.00;4.03;;;;;;;;;;5085569;28;20422;-60
2022/05/12 01:51:54;;;;;;;9.18;4.40;;;;;;;;;;5090515;28;20024;-59
2022/05/12 01:54:20;;;;;;;7.13;4.07;;;;;;;;;;5084732;28;20464;-60
2022/05/12 01:56:46;;;;;;;9.18;4.47;;;;;;;;;;5097281;28;20019;-59
2022/05/12 01:59:12;;;;;;;9.75;4.45;;;;;;;;;;5089910;28;20020;-59
2022/05/12 02:01:38;;;;;;;9.43;4.30;;;;;;;;;;5089357;28;20056;-60
2022/05/12 02:04:05;;;;;;;8.65;3.90;;;;;;;;;;5089170;28;20035;-60
2022/05/12 02:06:31;;;;;;;7.68;4.38;;;;;;;;;;5084020;28;20061;-60
2022/05/12 02:08:57;;;;;;;8.88;3.97;;;;;;;;;;5087201;28;20020;-60
2022/05/12 02:11:24;;;;;;;9.98;4.40;;;;;;;;;;5087784;28;20277;-60
2022/05/12 02:13:49;;;;;;;8.20;4.25;;;;;;;;;;5081675;28;20512;-60
2022/05/12 02:16:15;;;;;;;9.82;4.40;;;;;;;;;;5091490;28;20067;-60
2022/05/12 02:18:43;;;;;;;10.65;4.25;;;;;;;;;;5092074;28;20034;-60
2022/05/12 02:21:09;;;;;;;8.77;4.30;;;;;;;;;;5087955;28;20371;-60
2022/05/12 02:23:35;;;;;;;9.48;4.20;;;;;;;;;;5089660;28;20371;-59
2022/05/12 02:26:01;;;;;;;12.15;4.10;;;;;;;;;;5090856;28;20039;-60
2022/05/12 02:28:27;;;;;;;8.98;4.03;;;;;;;;;;5098023;28;20023;-60
2022/05/12 02:30:53;;;;;;;10.05;4.65;;;;;;;;;;5092472;28;20016;-59
2022/05/12 02:33:19;;;;;;;9.02;4.05;;;;;;;;;;5093928;28;20408;-59
2022/05/12 02:35:45;;;;;;;6.88;3.75;;;;;;;;;;5089397;28;20082;-60
2022/05/12 02:38:11;;;;;;;6.22;3.25;;;;;;;;;;5083873;28;20474;-59
2022/05/12 02:40:37;;;;;;;6.22;3.63;;;;;;;;;;5089384;28;20398;-60
2022/05/12 02:43:23;;;;;;;7.57;3.80;;;;;;;;;;5091312;28;20115;-60
2022/05/12 02:45:49;;;;;;;7.03;3.83;;;;;;;;;;5091143;28;20493;-59
2022/05/12 02:48:15;;;;;;;10.32;3.70;;;;;;;;;;5094973;28;20383;-60
2022/05/12 02:50:41;;;;;;;6.72;4.00;;;;;;;;;;5089498;28;20024;-60
2022/05/12 02:53:07;;;;;;;7.88;3.47;;;;;;;;;;5092864;28;20026;-60
2022/05/12 02:55:33;;;;;;;10.18;4.05;;;;;;;;;;5085266;28;20027;-59
2022/05/12 02:57:59;;;;;;;7.90;4.15;;;;;;;;;;5092054;28;20019;-60
2022/05/12 03:00:25;;;;;;;8.13;3.75;;;;;;;;;;5092266;28;20133;-59
2022/05/12 03:02:50;;;;;;;8.40;3.78;;;;;;;;;;5093399;28;20391;-60
2022/05/12 03:05:16;;;;;;;8.18;4.00;;;;;;;;;;5085892;28;20104;-59
2022/05/12 03:07:43;;;;;;;7.38;3.60;;;;;;;;;;5088042;28;20016;-59
2022/05/12 03:10:10;;;;;;;8.30;4.38;;;;;;;;;;5091918;28;20052;-59
2022/05/12 03:12:36;;;;;;;9.07;4.00;;;;;;;;;;5086062;28;20467;-60
2022/05/12 03:15:03;;;;;;;7.00;3.85;;;;;;;;;;5083845;28;20030;-59
2022/05/12 03:17:30;;;;;;;8.98;3.92;;;;;;;;;;5084908;28;20945;-59
2022/05/12 03:19:56;;;;;;;9.30;4.57;;;;;;;;;;5089260;28;20028;-60
2022/05/12 03:22:22;;;;;;;9.52;4.30;;;;;;;;;;5088802;28;20027;-59
2022/05/12 03:24:48;;;;;;;8.73;4.18;;;;;;;;;;5092248;28;20417;-59
2022/05/12 03:27:14;;;;;;;7.90;3.95;;;;;;;;;;5087319;28;20450;-59
2022/05/12 03:29:40;;;;;;;7.68;4.18;;;;;;;;;;5087394;28;20020;-59
2022/05/12 03:32:10;;;;;;;9.55;4.30;;;;;;;;;;5101380;28;20103;-60
2022/05/12 03:34:37;;;;;;;7.65;4.50;;;;;;;;;;5095180;28;20043;-59
2022/05/12 03:37:03;;;;;;;9.30;4.88;;;;;;;;;;5102590;28;20659;-59
2022/05/12 03:39:29;;;;;;;10.52;5.53;;;;;;;;;;5098369;28;20116;-59
2022/05/12 03:41:55;;;;;;;8.57;5.25;;;;;;;;;;5092136;28;20104;-59
2022/05/12 03:47:06;;;;;;;8.30;4.38;;;;;;;;;;5095064;28;20073;-60
2022/05/12 03:49:32;;;;;;;13.30;5.00;;;;;;;;;;5103635;28;20036;-59
2022/05/12 03:51:58;;;;;;;11.45;4.97;;;;;;;;;;5088601;28;20417;-59
2022/05/12 03:54:24;;;;;;;9.43;5.07;;;;;;;;;;5096286;28;20091;-59
2022/05/12 03:56:50;;;;;;;13.15;4.57;;;;;;;;;;5094358;28;20031;-60
2022/05/12 03:59:16;;;;;;;9.20;4.65;;;;;;;;;;5092658;28;20032;-59
2022/05/12 04:01:42;;;;;;;7.97;4.32;;;;;;;;;;5091044;28;20635;-60
2022/05/12 04:04:09;;;;;;;7.07;4.20;;;;;;;;;;5093509;28;20030;-59
2022/05/12 04:06:36;;;;;;;10.02;4.78;;;;;;;;;;5093375;28;20040;-59
2022/05/12 04:09:02;;;;;;;9.23;5.30;;;;;;;;;;5086196;28;20598;-59
2022/05/12 04:11:28;;;;;;;7.13;4.68;;;;;;;;;;5089095;28;20455;-59
2022/05/12 04:13:54;;;;;;;10.35;4.50;;;;;;;;;;5088306;27;20054;-59
2022/05/12 04:16:20;;;;;;;9.15;5.05;;;;;;;;;;5088577;28;20652;-60
2022/05/12 04:18:46;;;;;;;10.02;4.55;;;;;;;;;;5084743;28;20071;-59
2022/05/12 04:21:12;;;;;;;10.13;4.57;;;;;;;;;;5093284;28;20085;-59
2022/05/12 04:23:38;;;;;;;12.88;5.60;;;;;;;;;;5094847;27;20074;-59
2022/05/12 04:26:04;;;;;;;10.25;5.32;;;;;;;;;;5095576;28;20036;-60
2022/05/12 04:28:30;;;;;;;10.63;5.45;;;;;;;;;;5095162;28;20023;-60
2022/05/12 04:30:56;;;;;;;9.77;5.53;;;;;;;;;;5098007;28;20016;-60
2022/05/12 04:36:07;;;;;;;9.85;5.95;;;;;;;;;;5092914;28;20536;-59
2022/05/12 04:38:33;;;;;;;9.90;5.22;;;;;;;;;;5093707;28;20021;-60
2022/05/12 04:40:59;;;;;;;10.27;5.28;;;;;;;;;;5099424;28;20031;-59
2022/05/12 04:43:27;;;;;;;9.25;5.70;;;;;;;;;;5089917;28;20593;-59
2022/05/12 04:45:53;;;;;;;11.18;4.93;;;;;;;;;;5086986;28;20043;-59
2022/05/12 04:48:19;;;;;;;9.25;5.32;;;;;;;;;;5097592;28;20391;-59
2022/05/12 04:50:45;;;;;;;10.48;5.70;;;;;;;;;;5102915;28;20028;-60
2022/05/12 04:53:11;;;;;;;9.50;5.07;;;;;;;;;;5091655;28;20031;-60
2022/05/12 04:55:38;;;;;;;11.70;5.22;;;;;;;;;;5093593;28;20028;-60
2022/05/12 04:58:04;;;;;;;8.85;5.47;;;;;;;;;;5089877;28;20444;-60
2022/05/12 05:00:35;;;;;;;10.32;5.25;;;;;;;;;;5097860;28;20088;-59
2022/05/12 05:03:01;;;;;;;8.13;5.15;;;;;;;;;;5089530;28;20071;-60
2022/05/12 05:05:27;;;;;;;9.75;5.47;;;;;;;;;;5087571;28;20108;-60
2022/05/12 05:07:54;;;;;;;11.45;5.75;;;;;;;;;;5091726;28;20042;-60
2022/05/12 05:10:20;;;;;;;10.05;5.15;;;;;;;;;;5096581;28;20031;-60
2022/05/12 05:12:46;;;;;;;12.70;5.80;;;;;;;;;;5091817;28;20360;-60
2022/05/12 05:15:13;;;;;;;10.48;5.72;;;;;;;;;;5090868;28;20020;-60
2022/05/12 05:17:40;;;;;;;12.85;5.88;;;;;;;;;;5095376;28;20076;-60
2022/05/12 05:20:07;;;;;;;10.90;6.15;;;;;;;;;;5077693;28;20031;-63
2022/05/12 05:22:33;;;;;;;13.10;6.28;;;;;;;;;;5097450;28;20016;-63
2022/05/12 05:24:59;;;;;;;13.35;6.35;;;;;;;;;;5083974;28;20493;-62
2022/05/12 05:27:25;;;;;;;13.23;5.80;;;;;;;;;;5100629;28;20119;-62
2022/05/12 05:29:51;;;;;;;12.00;5.43;;;;;;;;;;5090287;28;20091;-61
2022/05/12 05:32:18;;;;;;;17.52;6.03;;;;;;;;;;5089277;28;20095;-61
2022/05/12 05:34:44;;;;;;;12.30;5.20;;;;;;;;;;5087391;28;20025;-61
2022/05/12 05:37:09;;;;;;;14.32;5.38;;;;;;;;;;5092115;28;20030;-60
2022/05/12 05:39:36;;;;;;;9.88;5.35;;;;;;;;;;5094785;28;20394;-61
2022/05/12 05:42:07;;;;;;;11.75;5.90;;;;;;;;;;5090478;28;20035;-61
2022/05/12 05:44:34;;;;;;;13.35;5.03;;;;;;;;;;5097309;28;20126;-61
2022/05/12 05:47:00;;;;;;;12.02;6.05;;;;;;;;;;5093338;28;20042;-61
2022/05/12 05:49:28;;;;;;;25.95;6.80;;;;;;;;;;5088289;28;20027;-61
2022/05/12 05:54:39;;;;;;;17.05;6.80;;;;;;;;;;5098664;28;20023;-61
2022/05/12 05:57:05;;;;;;;16.20;7.10;;;;;;;;;;5091204;27;20408;-61
2022/05/12 05:59:31;;;;;;;21.27;8.25;;;;;;;;;;5097011;28;20023;-62
2022/05/12 06:01:57;;;;;;;18.17;8.00;;;;;;;;;;5083396;28;20046;-61
2022/05/12 06:04:23;;;;;;;16.92;8.48;;;;;;;;;;5088215;28;20122;-61
2022/05/12 06:06:49;;;;;;;19.02;8.93;;;;;;;;;;5089021;28;20107;-61
2022/05/12 06:09:16;;;;;;;18.58;9.63;;;;;;;;;;5089704;28;20015;-61
2022/05/12 06:11:43;;;;;;;19.33;9.95;;;;;;;;;;5079048;28;20023;-61
2022/05/12 06:14:09;;;;;;;23.60;10.07;;;;;;;;;;5079943;28;20412;-61
2022/05/12 06:16:35;;;;;;;24.08;12.25;;;;;;;;;;5080792;28;20042;-61
2022/05/12 06:19:01;;;;;;;20.52;11.30;;;;;;;;;;5078490;28;20058;-61
2022/05/12 06:21:27;;;;;;;25.17;12.50;;;;;;;;;;5084102;28;20086;-61
2022/05/12 06:23:53;;;;;;;25.88;13.13;;;;;;;;;;5087679;28;20032;-61
2022/05/12 06:26:20;;;;;;;27.75;12.40;;;;;;;;;;5079090;28;20133;-61
2022/05/12 06:28:47;;;;;;;25.10;12.48;;;;;;;;;;5082180;28;20067;-61
2022/05/12 06:31:19;;;;;;;22.23;13.18;;;;;;;;;;5073517;28;20459;-61
2022/05/12 06:33:45;;;;;;;26.60;13.00;;;;;;;;;;5078374;28;20632;-61
2022/05/12 06:36:12;;;;;;;25.25;13.55;;;;;;;;;;5077672;28;20528;-61
2022/05/12 06:38:38;;;;;;;23.83;12.95;;;;;;;;;;5080606;28;20059;-60
2022/05/12 06:41:04;;;;;;;24.38;13.55;;;;;;;;;;5082846;28;20107;-61
2022/05/12 06:43:31;;;;;;;25.42;13.02;;;;;;;;;;5088358;28;20032;-61
2022/05/12 06:45:57;;;;;;;24.25;13.50;;;;;;;;;;5087847;28;20106;-60
2022/05/12 06:48:23;;;;;;;30.05;13.63;;;;;;;;;;5096627;28;20131;-61
2022/05/12 06:50:49;;;;;;;22.67;13.50;;;;;;;;;;5102325;28;20015;-60
2022/05/12 06:53:15;;;;;;;24.95;13.15;;;;;;;;;;5084920;28;20081;-60
2022/05/12 06:55:41;;;;;;;24.77;13.23;;;;;;;;;;5101150;28;20730;-61
2022/05/12 06:58:07;;;;;;;21.83;12.32;;;;;;;;;;5094205;28;20020;-61
2022/05/12 07:00:33;;;;;;;24.15;12.95;;;;;;;;;;5081445;28;20032;-61
2022/05/12 07:02:59;;;;;;;23.00;12.90;;;;;;;;;;5097261;28;20559;-61
2022/05/12 07:05:26;;;;;;;21.67;12.43;;;;;;;;;;5088690;28;20024;-61
2022/05/12 07:07:52;;;;;;;27.00;13.90;;;;;;;;;;5094332;28;20036;-61
2022/05/12 07:10:20;;;;;;;26.10;12.45;;;;;;;;;;5093583;28;20024;-61
2022/05/12 07:12:47;;;;;;;20.58;12.23;;;;;;;;;;5098164;28;20011;-61
2022/05/12 07:15:13;;;;;;;21.30;12.30;;;;;;;;;;5093671;28;20074;-61
2022/05/12 07:17:39;;;;;;;21.80;12.18;;;;;;;;;;5093695;28;20042;-61
2022/05/12 07:28:20;;;;;;;20.30;11.93;;;;;;;;;;5091172;28;20274;-61
2022/05/12 07:31:01;;;;;;;19.42;12.93;;;;;;;;;;5086409;28;20112;-61
2022/05/12 07:33:31;;;;;;;21.45;12.18;;;;;;;;;;5075617;28;20105;-61
2022/05/12 07:35:58;;;;;;;23.10;12.05;;;;;;;;;;5095701;28;20013;-60
2022/05/12 07:38:24;;;;;;;23.25;13.32;;;;;;;;;;5088757;28;20061;-61
2022/05/12 07:40:50;;;;;;;15.30;10.57;;;;;;;;;;5090041;28;20024;-61
2022/05/12 07:43:16;;;;;;;18.08;10.95;;;;;;;;;;5079884;28;20017;-61
2022/05/12 07:45:42;;;;;;;16.00;10.05;;;;;;;;;;5079038;28;20047;-60
2022/05/12 07:48:08;;;;;;;17.02;9.38;;;;;;;;;;5096246;28;20126;-60
2022/05/12 07:50:34;;;;;;;16.73;10.48;;;;;;;;;;5103779;28;20015;-61
2022/05/12 07:53:00;;;;;;;20.75;13.00;;;;;;;;;;5075688;28;20166;-61
2022/05/12 07:55:26;;;;;;;18.58;13.10;;;;;;;;;;5095541;28;20016;-61
2022/05/12 07:57:52;;;;;;;19.60;13.07;;;;;;;;;;5079274;28;20095;-61
2022/05/12 08:00:18;;;;;;;21.05;12.77;;;;;;;;;;5091087;28;20028;-60
2022/05/12 08:02:45;;;;;;;21.95;12.40;;;;;;;;;;5097593;28;20074;-60
2022/05/12 08:05:11;;;;;;;19.33;11.70;;;;;;;;;;5088132;28;20028;-60
2022/05/12 08:07:37;;;;;;;17.83;11.45;;;;;;;;;;5094878;28;20902;-60
2022/05/12 08:10:05;;;;;;;20.83;12.10;;;;;;;;;;5097528;28;20051;-61
2022/05/12 08:12:31;;;;;;;19.13;12.57;;;;;;;;;;5091304;28;20020;-61
2022/05/12 08:14:57;;;;;;;18.95;11.25;;;;;;;;;;5085736;28;20039;-60
2022/05/12 08:17:23;;;;;;;17.02;11.85;;;;;;;;;;5086058;28;20631;-60
2022/05/12 08:19:49;;;;;;;15.70;11.02;;;;;;;;;;5080214;28;20031;-61
2022/05/12 08:22:15;;;;;;;14.90;10.20;;;;;;;;;;5085424;28;20109;-61
2022/05/12 08:24:41;;;;;;;16.75;10.13;;;;;;;;;;5077211;28;20808;-61
2022/05/12 08:27:08;;;;;;;15.20;10.07;;;;;;;;;;5088763;28;20039;-61
2022/05/12 08:29:34;;;;;;;16.85;10.02;;;;;;;;;;5089801;28;20055;-61
2022/05/12 08:31:59;;;;;;;13.63;10.68;;;;;;;;;;5097631;27;20112;-62
2022/05/12 08:34:25;;;;;;;14.82;10.10;;;;;;;;;;5083267;28;20024;-60
2022/05/12 08:36:54;;;;;;;16.02;9.27;;;;;;;;;;5087101;28;20387;-60
2022/05/12 08:39:20;;;;;;;15.18;9.80;;;;;;;;;;5091963;28;20034;-61
2022/05/12 08:41:51;;;;;;;16.25;10.48;;;;;;;;;;5097831;28;20110;-61
2022/05/12 08:44:20;;;;;;;18.90;13.95;;;;;;;;;;5087865;28;20098;-60
2022/05/12 08:46:54;;;;;;;16.48;13.73;;;;;;;;;;5093155;28;20057;-61
2022/05/12 08:49:20;;;;;;;17.98;12.07;;;;;;;;;;5092391;28;20539;-61
2022/05/12 08:52:00;;;;;;;15.65;11.93;;;;;;;;;;5101933;28;20108;-61
2022/05/12 08:54:27;;;;;;;15.40;10.95;;;;;;;;;;5100110;28;20028;-61
2022/05/12 08:56:59;;;;;;;13.95;9.27;;;;;;;;;;5092605;28;20032;-61
2022/05/12 08:59:25;;;;;;;10.82;8.73;;;;;;;;;;5081514;28;20051;-61
2022/05/12 09:01:51;;;;;;;12.40;9.70;;;;;;;;;;5091976;28;20128;-61
2022/05/12 09:04:17;;;;;;;15.90;10.25;;;;;;;;;;5093668;28;20078;-61
2022/05/12 09:06:46;;;;;;;12.88;10.32;;;;;;;;;;5095417;28;20463;-61
2022/05/12 09:09:25;;;;;;;14.32;10.25;;;;;;;;;;5091760;28;20102;-61
2022/05/12 09:12:00;;;;;;;16.80;9.75;;;;;;;;;;5080681;28;20073;-61
2022/05/12 09:14:45;;;;;;;14.48;9.75;;;;;;;;;;5087478;28;20021;-61
2022/05/12 09:17:13;;;;;;;15.32;9.32;;;;;;;;;;5095153;28;20073;-61
2022/05/12 09:19:39;;;;;;;13.23;8.68;;;;;;;;;;5081086;28;20020;-61
2022/05/12 09:22:05;;;;;;;13.82;9.40;;;;;;;;;;5094088;28;20043;-61
2022/05/12 09:24:31;;;;;;;14.20;8.75;;;;;;;;;;5086692;28;20039;-61
2022/05/12 09:27:14;;;;;;;11.05;8.25;;;;;;;;;;5099642;28;20608;-61
2022/05/12 09:29:43;;;;;;;11.73;7.90;;;;;;;;;;5082147;28;20351;-61
2022/05/12 09:32:09;;;;;;;16.50;8.45;;;;;;;;;;5088098;28;20376;-61
2022/05/12 09:34:36;;;;;;;12.13;7.15;;;;;;;;;;5076961;28;20042;-62
2022/05/12 09:37:25;;;;;;;11.32;6.72;;;;;;;;;;5081692;28;20036;-61
2022/05/12 09:39:56;;;;;;;12.30;8.32;;;;;;;;;;5083548;28;20073;-61
2022/05/12 09:42:28;;;;;;;10.82;8.15;;;;;;;;;;5083346;28;20118;-60
2022/05/12 09:44:56;;;;;;;14.40;7.57;;;;;;;;;;5096589;28;20027;-61
2022/05/12 09:47:22;;;;;;;11.07;6.90;;;;;;;;;;5087914;27;20032;-61
2022/05/12 09:49:48;;;;;;;7.35;4.57;;;;;;;;;;5085641;28;20028;-61
2022/05/12 09:52:32;;;;;;;8.77;4.97;;;;;;;;;;5099340;28;20012;-61
2022/05/12 09:55:10;;;;;;;10.23;6.88;;;;;;;;;;5096262;28;20054;-61
2022/05/12 09:57:36;;;;;;;10.68;5.85;;;;;;;;;;5086041;28;20024;-61
2022/05/12 10:00:04;;;;;;;8.00;4.88;;;;;;;;;;5093951;28;20107;-62
2022/05/12 10:08:16;;;;;;;5.10;2.53;;;;;;;;;;5086527;28;20047;-61
2022/05/12 10:10:43;;;;;;;9.35;3.30;;;;;;;;;;5094176;28;20110;-60
2022/05/12 10:13:25;;;;;;;7.50;3.63;;;;;;;;;;5085571;28;20016;-61
2022/05/12 10:15:53;;;;;;;10.73;4.90;;;;;;;;;;5087944;28;20483;-61
2022/05/12 10:18:19;;;;;;;11.32;5.78;;;;;;;;;;5076618;28;20023;-61
2022/05/12 10:20:48;;;;;;;7.07;3.80;;;;;;;;;;5091361;28;20236;-61
2022/05/12 10:23:38;;;;;;;5.10;3.10;;;;;;;;;;5099060;28;20042;-61
2022/05/12 10:26:04;;;;;;;5.60;3.10;;;;;;;;;;5082418;28;20036;-61
2022/05/12 10:28:48;;;;;;;6.75;3.17;;;;;;;;;;5078370;28;20089;-61
2022/05/12 10:31:26;;;;;;;4.68;2.90;;;;;;;;;;5089583;28;20035;-61
2022/05/12 10:33:59;;;;;;;4.30;2.83;;;;;;;;;;5086281;28;20023;-61
2022/05/12 10:36:35;;;;;;;4.78;2.92;;;;;;;;;;5100477;28;20438;-61
2022/05/12 10:39:14;;;;;;;5.82;2.97;;;;;;;;;;5091341;28;20584;-61
2022/05/12 10:41:47;;;;;;;4.72;2.25;;;;;;;;;;5088008;28;20842;-62
2022/05/12 10:44:24;;;;;;;6.28;2.20;;;;;;;;;;5087527;28;20024;-62
2022/05/12 10:47:02;;;;;;;5.07;2.10;;;;;;;;;;5073719;28;20037;-61
2022/05/12 10:49:34;;;;;;;5.03;2.20;;;;;;;;;;5085452;28;20025;-61
2022/05/12 10:52:00;;;;;;;5.35;2.10;;;;;;;;;;5088273;28;20027;-61
2022/05/12 10:54:34;;;;;;;7.68;2.28;;;;;;;;;;5099489;28;20473;-61
2022/05/12 10:57:12;;;;;;;7.40;2.15;;;;;;;;;;5093202;28;20733;-61
2022/05/12 10:59:46;;;;;;;8.05;2.53;;;;;;;;;;5086695;28;20111;-61
2022/05/12 11:02:18;;;;;;;10.48;3.25;;;;;;;;;;5091464;28;20062;-61
2022/05/12 11:04:47;;;;;;;11.32;3.00;;;;;;;;;;5083965;28;20039;-61
2022/05/12 11:07:13;;;;;;;7.13;2.30;;;;;;;;;;5080137;28;20032;-61
2022/05/12 11:10:00;;;;;;;4.90;2.38;;;;;;;;;;5082537;28;20032;-61
2022/05/12 11:12:34;;;;;;;8.00;2.45;;;;;;;;;;5082574;28;20032;-62
2022/05/12 11:15:10;;;;;;;6.63;2.60;;;;;;;;;;5089945;28;20506;-61
2022/05/12 11:17:41;;;;;;;6.60;3.00;;;;;;;;;;5074629;28;20111;-61
2022/05/12 11:20:17;;;;;;;7.78;2.95;;;;;;;;;;5083030;28;20092;-62
2022/05/12 11:22:46;;;;;;;10.80;3.05;;;;;;;;;;5092159;28;20122;-61
2022/05/12 11:25:25;;;;;;;6.75;3.00;;;;;;;;;;5080217;28;20356;-61
2022/05/12 11:31:30;;;;;;;5.65;2.90;;;;;;;;;;5084884;28;20035;-62
2022/05/12 11:33:58;;;;;;;11.25;3.30;;;;;;;;;;5072336;28;20177;-61
2022/05/12 11:36:41;;;;;;;8.75;3.17;;;;;;;;;;5095103;28;20035;-61
2022/05/12 11:39:20;;;;;;;7.97;3.10;;;;;;;;;;5091725;28;20047;-61
2022/05/12 11:41:46;;;;;;;7.60;2.90;;;;;;;;;;5097527;28;20031;-61
2022/05/12 11:44:24;;;;;;;5.25;2.47;;;;;;;;;;5086720;28;20465;-61
2022/05/12 11:46:50;;;;;;;8.60;3.40;;;;;;;;;;5083031;28;20107;-63
2022/05/12 11:49:19;;;;;;;10.38;4.30;;;;;;;;;;5089879;28;20063;-61
2022/05/12 11:51:55;;;;;;;5.75;2.55;;;;;;;;;;5092611;28;20028;-61
2022/05/12 11:54:24;;;;;;;8.07;2.85;;;;;;;;;;5090139;28;20023;-61
2022/05/12 11:56:57;;;;;;;6.00;2.83;;;;;;;;;;5079041;28;20024;-61
2022/05/12 11:59:31;;;;;;;8.43;2.90;;;;;;;;;;5083648;28;20046;-61
2022/05/12 12:02:26;;;;;;;12.77;3.10;;;;;;;;;;5095987;28;20027;-61
2022/05/12 12:04:53;;;;;;;5.38;2.38;;;;;;;;;;5078229;28;20020;-61
2022/05/12 12:07:22;;;;;;;6.15;2.65;;;;;;;;;;5091401;28;20104;-61
2022/05/12 12:09:55;;;;;;;5.85;2.13;;;;;;;;;;5099572;28;20030;-61
2022/05/12 12:12:40;;;;;;;5.00;2.50;;;;;;;;;;5093722;28;20578;-61
2022/05/12 12:15:07;;;;;;;5.07;2.40;;;;;;;;;;5080850;28;20056;-61
2022/05/12 12:17:33;;;;;;;4.13;2.00;;;;;;;;;;5092334;28;20102;-61
2022/05/12 12:20:09;;;;;;;7.45;2.63;;;;;;;;;;5091649;28;20087;-61
2022/05/12 12:22:36;;;;;;;9.25;2.67;;;;;;;;;;5102350;28;20020;-61
2022/05/12 12:25:02;;;;;;;4.20;2.15;;;;;;;;;;5084978;28;20025;-61
2022/05/12 12:27:28;;;;;;;7.70;2.78;;;;;;;;;;5089627;28;20083;-61
2022/05/12 12:29:54;;;;;;;6.68;2.97;;;;;;;;;;5084740;28;20498;-61
2022/05/12 12:32:30;;;;;;;8.80;2.53;;;;;;;;;;5090388;28;20069;-62
2022/05/12 12:35:04;;;;;;;7.93;2.70;;;;;;;;;;5094971;28;20375;-61
2022/05/12 12:37:41;;;;;;;4.03;2.20;;;;;;;;;;5100727;28;20502;-61
2022/05/12 12:40:26;;;;;;;7.38;2.60;;;;;;;;;;5084134;28;20056;-61
2022/05/12 12:42:53;;;;;;;7.22;2.78;;;;;;;;;;5091302;28;20024;-61
2022/05/12 12:45:21;;;;;;;8.30;2.75;;;;;;;;;;5091858;28;20070;-61
2022/05/12 12:47:50;;;;;;;6.32;2.70;;;;;;;;;;5085516;28;20028;-61
2022/05/12 12:50:34;;;;;;;6.82;3.40;;;;;;;;;;5092379;28;20099;-62
2022/05/12 12:53:01;;;;;;;5.78;2.72;;;;;;;;;;5099757;28;20023;-61
2022/05/12 12:58:37;;;;;;;9.65;2.95;;;;;;;;;;5091508;28;20053;-61
2022/05/12 13:01:09;;;;;;;5.32;2.63;;;;;;;;;;5086661;28;20498;-61
2022/05/12 13:03:36;;;;;;;7.55;2.33;;;;;;;;;;5082113;28;20383;-61
2022/05/12 13:06:10;;;;;;;4.90;2.40;;;;;;;;;;5088701;28;20028;-61
2022/05/12 13:08:36;;;;;;;6.28;2.55;;;;;;;;;;5086687;28;20085;-61
2022/05/12 13:11:03;;;;;;;5.32;2.72;;;;;;;;;;5098684;28;20023;-61
2022/05/12 13:13:30;;;;;;;7.22;2.38;;;;;;;;;;5096246;28;20019;-61
2022/05/12 13:15:58;;;;;;;7.07;2.65;;;;;;;;;;5086196;28;20032;-61
2022/05/12 13:18:27;;;;;;;5.32;2.47;;;;;;;;;;5085980;28;20023;-61
2022/05/12 13:20:53;;;;;;;5.63;2.90;;;;;;;;;;5082990;28;20624;-61
2022/05/12 13:23:25;;;;;;;8.40;3.40;;;;;;;;;;5074876;28;20035;-61
2022/05/12 13:25:52;;;;;;;5.75;2.50;;;;;;;;;;5096149;28;20062;-61
2022/05/12 13:28:37;;;;;;;12.65;3.80;;;;;;;;;;5078838;28;20397;-61
2022/05/12 13:31:13;;;;;;;7.78;3.38;;;;;;;;;;5093018;28;20030;-61
2022/05/12 13:33:54;;;;;;;6.57;3.42;;;;;;;;;;5076836;28;20082;-62
2022/05/12 13:36:23;;;;;;;7.18;3.13;;;;;;;;;;5089242;28;20016;-61
2022/05/12 13:38:49;;;;;;;5.07;2.70;;;;;;;;;;5092142;28;20016;-61
2022/05/12 13:41:24;;;;;;;10.00;3.17;;;;;;;;;;5091392;28;20069;-61
2022/05/12 13:43:51;;;;;;;6.00;2.75;;;;;;;;;;5103953;28;20024;-61
2022/05/12 13:46:17;;;;;;;8.60;3.40;;;;;;;;;;5095260;28;20036;-61
2022/05/12 13:49:03;;;;;;;6.13;3.72;;;;;;;;;;5086149;28;20041;-61
2022/05/12 13:51:44;;;;;;;7.78;3.42;;;;;;;;;;5084512;28;20023;-61
2022/05/12 13:54:21;;;;;;;6.65;2.95;;;;;;;;;;5085186;28;20016;-61
2022/05/12 13:56:48;;;;;;;11.18;3.80;;;;;;;;;;5077749;28;20076;-61
2022/05/12 13:59:34;;;;;;;5.30;3.13;;;;;;;;;;5086569;28;20016;-61
2022/05/12 14:02:17;;;;;;;8.05;3.60;;;;;;;;;;5087310;28;20048;-61
2022/05/12 14:04:43;;;;;;;5.45;2.83;;;;;;;;;;5091065;28;20031;-61
2022/05/12 14:07:09;;;;;;;6.85;3.08;;;;;;;;;;5077072;28;20023;-61
2022/05/12 14:09:36;;;;;;;8.82;3.13;;;;;;;;;;5094167;28;20039;-61
2022/05/12 14:12:09;;;;;;;6.55;2.63;;;;;;;;;;5083584;28;20368;-61
2022/05/12 14:20:08;;;;;;;7.78;3.08;;;;;;;;;;5087168;28;20077;-61
2022/05/12 14:22:34;;;;;;;5.35;2.80;;;;;;;;;;5096951;28;20324;-61
2022/05/12 14:25:00;;;;;;;7.78;3.30;;;;;;;;;;5092712;28;20111;-61
2022/05/12 14:27:26;;;;;;;7.57;3.22;;;;;;;;;;5081968;28;20040;-61
2022/05/12 14:29:52;;;;;;;7.45;3.25;;;;;;;;;;5076210;28;20460;-61
2022/05/12 14:32:20;;;;;;;9.25;3.40;;;;;;;;;;5082354;28;20509;-61
2022/05/12 14:34:47;;;;;;;7.53;3.22;;;;;;;;;;5081000;28;20208;-61
2022/05/12 14:37:13;;;;;;;6.32;3.38;;;;;;;;;;5090721;28;20084;-61
2022/05/12 14:39:39;;;;;;;9.05;3.67;;;;;;;;;;5095957;28;20024;-61
2022/05/12 14:42:05;;;;;;;7.85;3.78;;;;;;;;;;5078185;28;20468;-61
2022/05/12 14:44:31;;;;;;;5.32;3.22;;;;;;;;;;5089349;28;20037;-61
2022/05/12 14:46:59;;;;;;;7.70;3.42;;;;;;;;;;5078142;28;20021;-61
2022/05/12 14:49:30;;;;;;;5.90;3.15;;;;;;;;;;5084633;28;20055;-61
2022/05/12 14:51:56;;;;;;;9.25;3.03;;;;;;;;;;5090103;28;20476;-61
2022/05/12 14:54:22;;;;;;;6.78;2.83;;;;;;;;;;5093045;28;20031;-62
2022/05/12 14:56:48;;;;;;;6.05;2.83;;;;;;;;;;5092720;28;20046;-61
2022/05/12 14:59:14;;;;;;;5.30;3.10;;;;;;;;;;5093056;28;20055;-61
2022/05/12 15:01:41;;;;;;;9.85;3.30;;;;;;;;;;5083669;28;20026;-61
2022/05/12 15:04:07;;;;;;;5.75;3.35;;;;;;;;;;5085698;28;20365;-61
2022/05/12 15:06:34;;;;;;;8.98;3.63;;;;;;;;;;5098231;28;20103;-61
2022/05/12 15:09:00;;;;;;;7.88;3.30;;;;;;;;;;5091225;28;20452;-61
2022/05/12 15:11:26;;;;;;;8.88;3.60;;;;;;;;;;5083823;28;20564;-61
2022/05/12 15:13:55;;;;;;;7.20;3.45;;;;;;;;;;5091359;28;20024;-61
2022/05/12 15:16:22;;;;;;;8.10;3.90;;;;;;;;;;5077848;28;20039;-61
2022/05/12 15:18:49;;;;;;;10.30;3.90;;;;;;;;;;5086633;28;20089;-61